createdAt,value
2019-05-02T00:04:42.416Z,96711.81
2019-05-02T00:09:48.498Z,96706.94
2019-05-02T00:14:51.002Z,96705.30
2019-05-02T00:19:54.464Z,96704.72
2019-05-02T00:24:57.863Z,96703.11
2019-05-02T00:30:01.258Z,96689.70
2019-05-02T00:35:06.089Z,96690.80
2019-05-02T00:40:09.724Z,96682.05
2019-05-02T00:45:14.175Z,96678.50
2019-05-02T00:50:18.365Z,96673.33
2019-05-02T00:55:21.756Z,96670.87
2019-05-02T01:00:25.152Z,96665.68
2019-05-02T01:05:28.545Z,96666.77
2019-05-02T01:10:32.175Z,96661.84
2019-05-02T01:15:39.062Z,96651.45
2019-05-02T01:20:40.928Z,96654.47
2019-05-02T01:25:47.429Z,96655.03
2019-05-02T01:31:00.074Z,96648.45
2019-05-02T01:36:08.227Z,96643.81
2019-05-02T01:41:11.625Z,96636.15
2019-05-02T01:46:17.125Z,96642.98
2019-05-02T01:51:20.134Z,96638.31
2019-05-02T01:56:23.529Z,96627.59
2019-05-02T02:01:26.926Z,96624.22
2019-05-02T02:06:30.758Z,96624.66
2019-05-02T02:11:35.802Z,96619.52
2019-05-02T02:16:40.479Z,96631.28
2019-05-02T02:21:51.033Z,96626.45
2019-05-02T02:26:54.431Z,96628.64
2019-05-02T02:31:57.832Z,96630.51
2019-05-02T02:37:05.462Z,96630.11
2019-05-02T02:42:06.392Z,96627.16
2019-05-02T02:47:12.008Z,96630.41
2019-05-02T02:52:14.939Z,96629.88
2019-05-02T02:57:25.709Z,96622.77
2019-05-02T03:02:23.971Z,96628.75
2019-05-02T03:07:28.853Z,96623.75
2019-05-02T03:12:45.855Z,96617.91
2019-05-02T03:17:49.262Z,96612.72
2019-05-02T03:22:52.901Z,96610.21
2019-05-02T03:27:56.437Z,96604.94
2019-05-02T03:33:09.726Z,96603.25
2019-05-02T03:38:05.211Z,96609.23
2019-05-02T03:43:08.882Z,96614.25
2019-05-02T03:48:18.435Z,96618.17
2019-05-02T03:53:25.183Z,96608.12
2019-05-02T03:58:22.699Z,96610.48
2019-05-02T04:03:26.399Z,96600.23
2019-05-02T04:08:30.758Z,96602.88
2019-05-02T04:13:36.319Z,96599.65
2019-05-02T04:18:40.092Z,96601.78
2019-05-02T04:23:44.359Z,96599.91
2019-05-02T04:28:51.703Z,96601.97
2019-05-02T04:33:52.929Z,96607.10
2019-05-02T04:38:59.345Z,96605.23
2019-05-02T04:44:01.863Z,96614.67
2019-05-02T04:49:05.306Z,96608.73
2019-05-02T04:54:09.359Z,96603.34
2019-05-02T04:59:17.751Z,96602.63
2019-05-02T05:04:18.076Z,96605.81
2019-05-02T05:09:21.479Z,96611.53
2019-05-02T05:14:25.109Z,96609.21
2019-05-02T05:19:32.636Z,96614.48
2019-05-02T05:24:38.545Z,96611.83
2019-05-02T05:29:40.642Z,96616.61
2019-05-02T05:34:44.037Z,96619.92
2019-05-02T05:39:48.758Z,96619.99
2019-05-02T05:44:52.590Z,96613.47
2019-05-02T05:49:57.615Z,96619.52
2019-05-02T05:55:01.126Z,96612.41
2019-05-02T06:00:12.004Z,96614.30
2019-05-02T06:05:13.290Z,96615.63
2019-05-02T06:10:16.767Z,96612.03
2019-05-02T06:15:20.157Z,96607.80
2019-05-02T06:20:25.629Z,96601.02
2019-05-02T06:25:34.402Z,96615.34
2019-05-02T06:30:34.373Z,96610.45
2019-05-02T06:35:37.771Z,96611.69
2019-05-02T06:40:44.786Z,96616.81
2019-05-02T06:45:46.291Z,96617.97
2019-05-02T06:50:49.713Z,96613.06
2019-05-02T06:55:53.177Z,96611.02
2019-05-02T07:00:58.928Z,96604.28
2019-05-02T07:06:02.673Z,96605.67
2019-05-02T07:11:07.315Z,96610.37
2019-05-02T07:16:37.532Z,96611.92
2019-05-02T07:21:29.118Z,96606.66
2019-05-02T07:26:32.516Z,96603.01
2019-05-02T07:31:35.916Z,96591.45
2019-05-02T07:36:39.338Z,96595.20
2019-05-02T07:41:42.734Z,96585.89
2019-05-02T07:46:51.955Z,96585.00
2019-05-02T07:51:52.257Z,96586.95
2019-05-02T07:56:56.406Z,96584.91
2019-05-02T08:01:59.820Z,96584.44
2019-05-02T08:07:03.218Z,96581.20
2019-05-02T08:12:06.951Z,96586.09
2019-05-02T08:17:16.340Z,96582.69
2019-05-02T08:22:15.571Z,96570.54
2019-05-02T08:27:23.503Z,96570.54
2019-05-02T08:32:26.903Z,96541.66
2019-05-02T08:37:30.306Z,96568.55
2019-05-02T08:42:33.850Z,96570.61
2019-05-02T08:47:37.198Z,96555.74
2019-05-02T08:52:42.104Z,96564.23
2019-05-02T08:57:45.950Z,96569.50
2019-05-02T09:02:49.355Z,96565.86
2019-05-02T09:07:52.754Z,96560.02
2019-05-02T09:12:56.168Z,96562.80
2019-05-02T09:17:59.587Z,96545.86
2019-05-02T09:23:03.079Z,96533.72
2019-05-02T09:28:06.478Z,96533.52
2019-05-02T09:33:11.696Z,96525.98
2019-05-02T09:38:16.374Z,96514.92
2019-05-02T09:43:19.806Z,96519.77
2019-05-02T09:48:26.814Z,96518.13
2019-05-02T09:53:28.386Z,96508.06
2019-05-02T09:58:32.157Z,96505.13
2019-05-02T10:03:35.553Z,96494.37
2019-05-02T10:08:43.420Z,96489.30
2019-05-02T10:13:44.385Z,96475.59
2019-05-02T10:18:48.039Z,96470.80
2019-05-02T10:23:58.952Z,96454.44
2019-05-02T10:28:56.618Z,96456.30
2019-05-02T10:34:02.229Z,96463.12
2019-05-02T10:39:07.219Z,96448.30
2019-05-02T10:44:12.744Z,96443.36
2019-05-02T10:49:17.365Z,96445.23
2019-05-02T10:54:23.025Z,96430.73
2019-05-02T10:59:26.045Z,96436.84
2019-05-02T11:04:32.339Z,96439.67
2019-05-02T11:09:35.348Z,96407.00
2019-05-02T11:14:46.171Z,96392.01
2019-05-02T11:20:01.889Z,96395.58
2019-05-02T11:25:07.198Z,96386.00
2019-05-02T11:30:12.241Z,96374.77
2019-05-02T11:35:15.967Z,96378.89
2019-05-02T11:40:19.628Z,96375.38
2019-05-02T11:45:23.049Z,96374.94
2019-05-02T11:50:26.619Z,96354.50
2019-05-02T11:55:31.963Z,96357.03
2019-05-02T12:00:35.462Z,96353.08
2019-05-02T12:05:42.355Z,96342.41
2019-05-02T12:10:45.917Z,96361.53
2019-05-02T12:15:51.774Z,96375.41
2019-05-02T12:20:54.717Z,96364.50
2019-05-02T12:25:58.134Z,96356.25
2019-05-02T12:31:02.703Z,96359.83
2019-05-02T12:36:08.352Z,96348.09
2019-05-02T12:41:20.296Z,96346.42
2019-05-02T12:46:16.886Z,96337.53
2019-05-02T12:51:22.366Z,96327.58
2019-05-02T12:56:25.949Z,96336.59
2019-05-02T13:01:29.361Z,96318.42
2019-05-02T13:06:33.031Z,96296.36
2019-05-02T13:11:52.164Z,96299.41
2019-05-02T13:17:01.295Z,96293.22
2019-05-02T13:22:02.339Z,96290.83
2019-05-02T13:27:08.282Z,96283.11
2019-05-02T13:32:18.567Z,96274.16
2019-05-02T13:37:22.435Z,96262.34
2019-05-02T13:42:25.884Z,96253.44
2019-05-02T13:47:29.282Z,96253.53
2019-05-02T13:52:33.287Z,96233.91
2019-05-02T13:57:43.126Z,96235.95
2019-05-02T14:02:43.280Z,96238.80
2019-05-02T14:07:53.148Z,96227.27
2019-05-02T14:13:03.046Z,96215.33
2019-05-02T14:18:06.001Z,96217.64
2019-05-02T14:23:09.417Z,96229.71
2019-05-02T14:28:13.054Z,96216.34
2019-05-02T14:33:18.041Z,96216.88
2019-05-02T14:38:22.075Z,96203.61
2019-05-02T14:43:46.182Z,96204.91
2019-05-02T14:48:48.532Z,96193.41
2019-05-02T14:53:52.760Z,96186.34
2019-05-02T14:58:57.179Z,96185.05
2019-05-02T15:04:06.484Z,96181.69
2019-05-02T15:09:08.156Z,96174.78
2019-05-02T15:14:18.388Z,96177.78
2019-05-02T15:19:16.688Z,96178.76
2019-05-02T15:24:20.106Z,96171.12
2019-05-02T15:29:27.135Z,96165.66
2019-05-02T15:34:35.510Z,96157.05
2019-05-02T15:44:43.435Z,96150.05
2019-05-02T15:49:46.830Z,96147.21
2019-05-02T15:54:55.498Z,96146.69
2019-05-02T15:59:55.673Z,96146.30
2019-05-02T16:05:02.345Z,96145.95
2019-05-02T16:10:06.243Z,96138.58
2019-05-02T16:15:19.594Z,96130.25
2019-05-02T16:20:17.156Z,96130.23
2019-05-02T16:25:24.493Z,96129.41
2019-05-02T16:30:26.088Z,96129.55
2019-05-02T16:35:31.148Z,96110.48
2019-05-02T16:40:35.012Z,96109.88
2019-05-02T16:45:38.381Z,96103.39
2019-05-02T16:50:43.535Z,96116.04
2019-05-02T16:55:46.895Z,96107.73
2019-05-02T17:00:50.295Z,96113.61
2019-05-02T17:05:54.436Z,96113.45
2019-05-02T17:10:59.617Z,96116.47
2019-05-02T17:16:06.889Z,96112.84
2019-05-02T17:21:08.366Z,96127.48
2019-05-02T17:26:12.267Z,96132.58
2019-05-02T17:31:19.620Z,96129.80
2019-05-02T17:36:28.050Z,96131.31
2019-05-02T17:41:25.955Z,96142.98
2019-05-02T17:46:29.417Z,96144.59
2019-05-02T17:51:37.867Z,96144.37
2019-05-02T17:56:42.069Z,96141.38
2019-05-02T18:01:45.494Z,96152.22
2019-05-02T18:06:53.654Z,96154.89
2019-05-02T18:11:54.251Z,96190.67
2019-05-02T18:16:57.637Z,96258.53
2019-05-02T18:22:03.636Z,96264.76
2019-05-02T18:27:06.317Z,96258.76
2019-05-02T18:32:09.735Z,96264.62
2019-05-02T18:37:13.148Z,96246.52
2019-05-02T18:42:21.089Z,96238.20
2019-05-02T18:47:24.628Z,96244.05
2019-05-02T18:52:36.356Z,96246.45
2019-05-02T18:57:32.005Z,96255.46
2019-05-02T19:02:35.763Z,96262.34
2019-05-02T19:07:39.093Z,96273.48
2019-05-02T19:12:42.588Z,96281.58
2019-05-02T19:17:46.063Z,96294.48
2019-05-02T19:22:54.790Z,96297.35
2019-05-02T19:27:59.360Z,96305.57
2019-05-02T19:33:07.642Z,96304.20
2019-05-02T19:38:07.873Z,96306.64
2019-05-02T19:43:14.570Z,96304.27
2019-05-02T19:48:16.645Z,96306.43
2019-05-02T19:53:20.048Z,96305.81
2019-05-02T19:58:23.444Z,96299.08
2019-05-02T20:03:26.842Z,96296.59
2019-05-02T20:08:32.368Z,96297.88
2019-05-02T20:13:35.451Z,96297.70
2019-05-02T20:18:43.965Z,96296.98
2019-05-02T20:23:44.266Z,96295.53
2019-05-02T20:28:47.688Z,96293.95
2019-05-02T20:33:52.030Z,96289.98
2019-05-02T20:38:55.463Z,96291.63
2019-05-02T20:43:58.859Z,96286.45
2019-05-02T20:49:02.697Z,96292.87
2019-05-02T20:54:06.094Z,96295.86
2019-05-02T20:59:09.584Z,96298.13
2019-05-02T21:04:12.984Z,96303.02
2019-05-02T21:09:18.047Z,96309.83
2019-05-02T21:14:21.713Z,96300.27
2019-05-02T21:19:25.120Z,96311.03
2019-05-02T21:24:28.520Z,96323.80
2019-05-02T21:29:32.223Z,96330.22
2019-05-02T21:34:35.831Z,96340.21
2019-05-02T21:39:39.230Z,96346.02
2019-05-02T21:44:42.661Z,96351.84
2019-05-02T21:49:52.480Z,96351.97
2019-05-02T21:55:03.015Z,96355.88
2019-05-02T22:00:12.457Z,96366.56
2019-05-02T22:05:16.100Z,96365.41
2019-05-02T22:10:19.492Z,96363.90
2019-05-02T22:15:23.156Z,96365.63
2019-05-02T22:20:26.580Z,96356.88
2019-05-02T22:25:32.645Z,96369.75
2019-05-02T22:30:36.423Z,96365.63
2019-05-02T22:35:43.174Z,96367.69
2019-05-02T22:40:46.579Z,96369.83
2019-05-02T22:45:49.999Z,96366.35
2019-05-02T22:50:53.399Z,96364.22
2019-05-02T22:55:56.798Z,96365.13
2019-05-02T23:01:01.656Z,96361.38
2019-05-02T23:06:05.074Z,96364.22
2019-05-02T23:11:08.494Z,96357.70
2019-05-02T23:16:11.989Z,96353.43
2019-05-02T23:21:15.403Z,96355.66
2019-05-02T23:26:22.315Z,96360.91
2019-05-02T23:31:25.836Z,96356.54
2019-05-02T23:36:32.259Z,96355.47
2019-05-02T23:41:35.723Z,96353.95
2019-05-02T23:46:39.123Z,96352.75
2019-05-02T23:51:42.887Z,96349.32
2019-05-02T23:56:46.332Z,96349.92
